Time;durP1;ratioP1;P1;durP2;ratioP2;P2;SDS_P1;SDS_P2;PMS_P1;PMS_P2;Temp;Humidity;BMP_temperature;BMP_pressure;BME280_temperature;BME280_humidity;BME280_pressure;Samples;Min_cycle;Max_cycle;Signal;HPM_P1;HPM_P2
2022/06/06 00:01:17;;;;;;;0.50;0.40;;;;;;;25.97;48.31;99433.75;5061829;28;20037;-69
2022/06/06 00:03:42;;;;;;;;;;;;;;;25.99;48.27;99428.50;5064794;28;20512;-70
2022/06/06 00:06:11;;;;;;;0.80;0.40;;;;;;;25.97;48.42;99425.34;5069550;28;19917;-70
2022/06/06 00:08:38;;;;;;;0.57;0.40;;;;;;;25.98;47.99;99424.13;5069576;28;20045;-68
2022/06/06 00:11:04;;;;;;;0.85;0.50;;;;;;;25.96;48.44;99412.53;5056481;28;20518;-68
2022/06/06 00:13:31;;;;;;;0.80;0.50;;;;;;;25.94;48.06;99407.34;5061847;28;20508;-69
2022/06/06 00:15:56;;;;;;;0.73;0.50;;;;;;;25.95;47.95;99411.72;5060798;28;20408;-70
2022/06/06 00:18:22;;;;;;;0.60;0.45;;;;;;;25.95;48.14;99403.31;5052663;28;20555;-69
2022/06/06 00:20:47;;;;;;;0.60;0.43;;;;;;;25.95;48.08;99408.94;5054920;28;20033;-69
2022/06/06 00:23:12;;;;;;;0.47;0.40;;;;;;;25.93;48.39;99411.34;5069752;28;20459;-69
2022/06/06 00:25:38;;;;;;;0.80;0.45;;;;;;;25.93;48.17;99402.13;5064421;28;20117;-69
2022/06/06 00:28:04;;;;;;;0.50;0.40;;;;;;;25.94;48.08;99406.53;5065150;28;20041;-70
2022/06/06 00:30:29;;;;;;;0.55;0.50;;;;;;;25.93;48.28;99411.34;5058955;28;20032;-69
2022/06/06 00:35:39;;;;;;;0.52;0.40;;;;;;;25.92;48.34;99409.72;5063516;28;20052;-69
2022/06/06 00:38:04;;;;;;;0.52;0.50;;;;;;;25.92;47.95;99415.34;5066243;28;20036;-68
2022/06/06 00:40:30;;;;;;;0.93;0.43;;;;;;;25.92;48.16;99414.53;5057805;28;20432;-68
2022/06/06 00:42:57;;;;;;;0.88;0.60;;;;;;;25.92;48.06;99414.53;5055630;28;20041;-70
2022/06/06 00:45:37;;;;;;;0.40;0.40;;;;;;;25.92;48.13;99418.13;5054685;28;20125;-70
2022/06/06 00:48:13;;;;;;;0.98;0.57;;;;;;;25.90;48.15;99408.56;5062295;28;20040;-69
2022/06/06 00:51:00;;;;;;;0.50;0.40;;;;;;;25.90;48.00;99405.75;5061032;28;20036;-68
2022/06/06 00:53:34;;;;;;;0.52;0.40;;;;;;;25.89;48.27;99407.75;5059046;28;20135;-69
2022/06/06 00:56:25;;;;;;;0.40;0.40;;;;;;;25.87;48.35;99410.19;5063210;28;20124;-69
2022/06/06 00:58:54;;;;;;;0.60;0.43;;;;;;;25.88;48.16;99408.19;5038426;28;20068;-69
2022/06/06 01:01:21;;;;;;;0.50;0.40;;;;;;;25.88;48.22;99408.19;5061120;28;20048;-69
2022/06/06 01:03:48;;;;;;;0.70;0.52;;;;;;;25.85;48.02;99411.78;5056072;28;20049;-69
2022/06/06 01:06:17;;;;;;;0.40;0.40;;;;;;;25.88;48.10;99402.56;5051562;28;20056;-69
2022/06/06 01:08:45;;;;;;;0.45;0.35;;;;;;;25.87;47.89;99407.38;5051815;28;20067;-69
2022/06/06 01:11:10;;;;;;;0.25;0.25;;;;;;;25.87;48.10;99406.59;5068036;28;20072;-69
2022/06/06 01:13:39;;;;;;;0.60;0.50;;;;;;;25.85;47.89;99397.78;5061974;28;20072;-69
2022/06/06 01:16:23;;;;;;;0.40;0.40;;;;;;;25.87;47.77;99400.97;5055736;28;20053;-68
2022/06/06 01:19:39;;;;;;;0.65;0.43;;;;;;;25.86;48.12;99393.75;5058678;28;20035;-69
2022/06/06 01:22:17;;;;;;;0.60;0.50;;;;;;;25.87;47.98;99390.56;4963097;28;20043;-69
2022/06/06 01:24:48;;;;;;;0.73;0.52;;;;;;;25.85;47.83;99395.78;4963921;28;20070;-69
2022/06/06 01:27:39;;;;;;;0.45;0.40;;;;;;;25.84;48.02;99394.19;4964343;28;20523;-69
2022/06/06 01:30:12;;;;;;;0.50;0.40;;;;;;;25.82;47.86;99391.00;4961764;28;20403;-68
2022/06/06 01:32:43;;;;;;;0.60;0.40;;;;;;;25.83;47.93;99394.59;4947474;28;20813;-68
2022/06/06 01:35:10;;;;;;;0.50;0.50;;;;;;;25.83;48.25;99383.38;4961400;28;20043;-69
2022/06/06 01:37:41;;;;;;;0.60;0.38;;;;;;;25.82;47.85;99381.78;4964719;28;20173;-69
2022/06/06 01:40:13;;;;;;;0.57;0.45;;;;;;;25.83;48.25;99397.41;4955270;28;20039;-69
2022/06/06 01:42:55;;;;;;;0.65;0.45;;;;;;;25.83;47.80;99380.59;4963140;28;20054;-69
2022/06/06 01:45:42;;;;;;;0.63;0.50;;;;;;;25.82;48.14;99376.19;4961723;28;20069;-68
2022/06/06 01:48:14;;;;;;;0.70;0.50;;;;;;;25.81;47.94;99386.59;4949990;28;20293;-69
2022/06/06 01:50:43;;;;;;;0.67;0.50;;;;;;;25.82;47.77;99382.59;4957976;28;20043;-69
2022/06/06 01:53:12;;;;;;;0.50;0.50;;;;;;;25.81;48.02;99377.41;4957556;28;20051;-68
2022/06/06 01:55:44;;;;;;;0.40;0.40;;;;;;;25.81;48.13;99381.00;4965771;28;20754;-68
2022/06/06 01:58:30;;;;;;;0.57;0.47;;;;;;;25.81;47.76;99380.19;5036504;28;20060;-69
2022/06/06 02:00:56;;;;;;;0.63;0.50;;;;;;;25.78;47.92;99377.00;5061670;28;20289;-68
2022/06/06 02:03:22;;;;;;;0.60;0.50;;;;;;;25.78;47.88;99374.19;5066014;28;20040;-68
2022/06/06 02:05:48;;;;;;;0.57;0.47;;;;;;;25.78;47.91;99373.41;5050873;28;20060;-68
2022/06/06 02:08:14;;;;;;;0.95;0.68;;;;;;;25.74;48.10;99375.44;5062616;28;20595;-69
2022/06/06 02:10:40;;;;;;;0.38;0.38;;;;;;;25.77;48.22;99380.22;5056610;28;20056;-68
2022/06/06 02:13:06;;;;;;;0.45;0.45;;;;;;;25.75;47.95;99375.03;5066285;28;20041;-68
2022/06/06 02:15:31;;;;;;;0.82;0.50;;;;;;;25.75;48.16;99371.44;5071027;28;20074;-68
2022/06/06 02:17:57;;;;;;;1.00;0.60;;;;;;;25.76;48.19;99378.63;5065895;28;20056;-70
2022/06/06 02:20:26;;;;;;;0.52;0.40;;;;;;;25.75;48.04;99382.63;5051167;28;20045;-67
2022/06/06 02:22:53;;;;;;;0.60;0.40;;;;;;;25.75;47.84;99377.81;5063972;28;20033;-67
2022/06/06 02:25:19;;;;;;;0.38;0.38;;;;;;;25.74;47.87;99379.03;5067346;28;20095;-67
2022/06/06 02:27:44;;;;;;;0.30;0.30;;;;;;;25.75;48.19;99377.03;5065028;28;20049;-68
2022/06/06 02:30:16;;;;;;;5.47;0.70;;;;;;;25.73;48.10;99380.25;5062295;28;20037;-70
2022/06/06 02:32:42;;;;;;;0.40;0.40;;;;;;;25.71;48.14;99382.59;5064245;28;20048;-68
2022/06/06 02:35:10;;;;;;;0.45;0.35;;;;;;;25.71;47.96;99374.19;5060607;28;20128;-70
2022/06/06 02:37:36;;;;;;;0.50;0.50;;;;;;;25.73;48.24;99374.66;5051909;28;20128;-68
2022/06/06 02:40:02;;;;;;;0.30;0.30;;;;;;;25.70;48.22;99375.41;5069024;28;20123;-68
2022/06/06 02:42:28;;;;;;;0.63;0.50;;;;;;;25.73;47.93;99385.06;5071451;28;20094;-68
2022/06/06 02:44:53;;;;;;;0.52;0.40;;;;;;;25.72;48.17;99381.47;5070264;28;20036;-69
2022/06/06 02:47:19;;;;;;;0.45;0.43;;;;;;;25.70;47.88;99383.81;5058509;28;20057;-69
2022/06/06 02:49:44;;;;;;;0.40;0.38;;;;;;;25.73;48.22;99393.47;5063731;28;20417;-69
2022/06/06 02:52:09;;;;;;;0.50;0.40;;;;;;;25.72;48.25;99392.66;5062521;28;20041;-69
2022/06/06 02:54:35;;;;;;;0.55;0.40;;;;;;;25.72;47.86;99389.06;5056047;28;20045;-69
2022/06/06 02:57:03;;;;;;;0.45;0.40;;;;;;;25.72;47.79;99384.25;5066141;28;20047;-69
2022/06/06 02:59:30;;;;;;;0.43;0.40;;;;;;;25.73;48.16;99399.06;5053973;28;20049;-68
2022/06/06 03:01:56;;;;;;;0.70;0.40;;;;;;;25.72;47.94;99391.88;5063047;28;20048;-68
2022/06/06 03:04:22;;;;;;;0.70;0.50;;;;;;;25.71;48.05;99399.41;5052587;28;20048;-69
2022/06/06 03:07:09;;;;;;;0.90;0.50;;;;;;;25.71;48.19;99395.81;5067278;28;20049;-69
2022/06/06 03:10:09;;;;;;;0.60;0.40;;;;;;;25.70;48.15;99392.22;5054327;28;20040;-69
2022/06/06 03:12:55;;;;;;;0.80;0.60;;;;;;;25.70;48.07;99391.44;5059365;28;20056;-69
2022/06/06 03:20:46;;;;;;;0.50;0.50;;;;;;;25.70;47.85;99397.81;5061832;28;20053;-69
2022/06/06 03:22:00;;;;;;;0.50;0.40;;;;;;;25.68;48.08;99396.66;5054494;28;20567;-70
2022/06/06 03:24:28;;;;;;;0.40;0.40;;;;;;;25.69;48.18;99406.66;5062980;28;20055;-70
2022/06/06 03:27:02;;;;;;;0.40;0.40;;;;;;;25.67;47.76;99409.88;5054609;28;20495;-69
2022/06/06 03:29:52;;;;;;;0.60;0.43;;;;;;;25.67;48.19;99421.06;5066733;28;20086;-69
2022/06/06 03:32:40;;;;;;;0.63;0.40;;;;;;;25.64;48.20;99415.47;5052797;28;20092;-68
2022/06/06 03:35:20;;;;;;;0.40;0.40;;;;;;;25.66;48.14;99419.47;5056516;28;20535;-68
2022/06/06 03:37:52;;;;;;;1.08;0.50;;;;;;;25.67;47.84;99418.25;5060905;28;20048;-69
2022/06/06 03:40:23;;;;;;;;;;;;;;;25.69;48.06;99424.25;5054596;28;20033;-68
2022/06/06 03:43:00;;;;;;;1.05;0.63;;;;;;;25.68;47.82;99419.84;5063978;28;20476;-69
2022/06/06 03:45:44;;;;;;;0.55;0.40;;;;;;;25.66;47.82;99429.88;5054757;28;20060;-69
2022/06/06 03:48:43;;;;;;;0.50;0.50;;;;;;;25.63;47.95;99437.09;5061449;28;20052;-69
2022/06/06 03:51:31;;;;;;;0.45;0.45;;;;;;;25.65;48.15;99426.28;5051073;28;20045;-69
2022/06/06 03:54:05;;;;;;;0.52;0.47;;;;;;;25.62;48.14;99429.88;5063991;28;20439;-69
2022/06/06 03:56:54;;;;;;;0.40;0.40;;;;;;;25.61;47.93;99427.50;5068764;28;20509;-69
2022/06/06 03:59:21;;;;;;;0.60;0.50;;;;;;;25.61;47.87;99428.28;5051807;28;20021;-69
2022/06/06 04:01:50;;;;;;;0.88;0.60;;;;;;;25.61;48.24;99430.31;5067785;28;20075;-69
2022/06/06 04:04:16;;;;;;;0.50;0.50;;;;;;;25.62;48.27;99420.69;5060906;28;20441;-68
2022/06/06 04:06:43;;;;;;;0.40;0.40;;;;;;;25.61;48.26;99422.69;5053995;28;20493;-68
2022/06/06 04:09:09;;;;;;;0.73;0.50;;;;;;;25.63;48.16;99430.69;5060549;28;20044;-69
2022/06/06 04:11:57;;;;;;;0.95;0.60;;;;;;;25.62;48.19;99431.88;5063234;28;20052;-69
2022/06/06 04:14:42;;;;;;;0.35;0.35;;;;;;;25.59;48.22;99427.91;5055131;28;20041;-69
2022/06/06 04:17:10;;;;;;;0.60;0.50;;;;;;;25.62;48.25;99426.28;5034059;28;20041;-68
2022/06/06 04:20:01;;;;;;;0.40;0.38;;;;;;;25.61;48.05;99422.69;5059518;28;20522;-68
2022/06/06 04:22:54;;;;;;;0.57;0.50;;;;;;;25.60;48.12;99423.91;5067097;28;20090;-68
2022/06/06 04:25:39;;;;;;;0.50;0.40;;;;;;;25.61;47.98;99430.31;5046926;28;20049;-69
2022/06/06 04:28:31;;;;;;;0.45;0.40;;;;;;;25.60;48.30;99434.31;5052228;28;20098;-68
2022/06/06 04:31:30;;;;;;;0.40;0.40;;;;;;;25.61;48.26;99433.91;5056753;28;20040;-68
2022/06/06 04:34:09;;;;;;;0.57;0.50;;;;;;;25.59;48.29;99433.50;5050278;28;20056;-69
2022/06/06 04:36:43;;;;;;;0.60;0.50;;;;;;;25.59;48.13;99435.53;5047968;28;20413;-69
2022/06/06 04:39:45;;;;;;;0.50;0.50;;;;;;;25.60;48.05;99437.91;5059764;28;20051;-69
2022/06/06 04:42:19;;;;;;;0.85;0.63;;;;;;;25.62;48.29;99429.09;5059553;28;20044;-69
2022/06/06 04:45:15;;;;;;;0.55;0.50;;;;;;;25.60;48.37;99437.91;5048051;28;20041;-69
2022/06/06 04:47:42;;;;;;;0.50;0.50;;;;;;;25.57;47.96;99421.91;5053832;28;20572;-68
2022/06/06 04:50:15;;;;;;;0.40;0.40;;;;;;;25.57;47.99;99430.31;5069237;28;20227;-68
2022/06/06 04:52:52;;;;;;;0.55;0.40;;;;;;;25.60;48.30;99432.31;5064540;28;20133;-69
2022/06/06 04:55:19;;;;;;;0.50;0.50;;;;;;;25.59;48.44;99425.13;5054773;28;20310;-68
2022/06/06 04:57:47;;;;;;;0.60;0.50;;;;;;;25.60;48.09;99425.91;5053047;28;20036;-69
2022/06/06 05:00:14;;;;;;;0.40;0.40;;;;;;;25.59;48.55;99427.13;5064763;28;20037;-69
2022/06/06 05:02:41;;;;;;;0.57;0.50;;;;;;;25.61;48.46;99424.69;5069016;28;20040;-69
2022/06/06 05:05:07;;;;;;;0.60;0.50;;;;;;;25.60;48.09;99425.91;5062541;28;20114;-69
2022/06/06 05:07:46;;;;;;;0.68;0.55;;;;;;;25.61;48.52;99425.50;5066203;28;20121;-69
2022/06/06 05:10:46;;;;;;;0.50;0.50;;;;;;;25.61;48.46;99425.50;5066453;28;20119;-69
2022/06/06 05:13:39;;;;;;;0.50;0.50;;;;;;;25.62;48.31;99415.09;5045880;28;20063;-68
2022/06/06 05:16:19;;;;;;;0.63;0.45;;;;;;;25.62;48.40;99417.88;5053156;28;20053;-69
2022/06/06 05:18:50;;;;;;;0.50;0.40;;;;;;;25.61;48.38;99417.09;5060474;28;20041;-69
2022/06/06 05:21:49;;;;;;;0.57;0.40;;;;;;;25.61;48.47;99411.50;5055568;28;20131;-69
2022/06/06 05:24:23;;;;;;;0.40;0.40;;;;;;;25.62;48.51;99418.69;5056537;28;20572;-69
2022/06/06 05:27:07;;;;;;;0.70;0.50;;;;;;;25.62;48.73;99412.28;5051444;28;20490;-70
2022/06/06 05:29:35;;;;;;;0.80;0.50;;;;;;;25.61;48.46;99417.09;5056698;28;20036;-69
2022/06/06 05:32:28;;;;;;;0.45;0.40;;;;;;;25.62;48.90;99417.88;5056824;28;20102;-69
2022/06/06 05:35:18;;;;;;;0.90;0.50;;;;;;;25.61;48.52;99417.09;5045932;28;20043;-68
2022/06/06 05:38:06;;;;;;;0.43;0.40;;;;;;;25.61;48.79;99411.50;5066263;28;20079;-68
2022/06/06 05:40:55;;;;;;;0.52;0.50;;;;;;;25.63;48.55;99414.66;5054665;28;20044;-68
2022/06/06 05:43:33;;;;;;;0.85;0.60;;;;;;;25.62;48.77;99424.28;5075987;28;20047;-69
2022/06/06 05:46:05;;;;;;;1.08;0.60;;;;;;;25.60;48.88;99421.09;5076017;28;20044;-68
2022/06/06 05:49:01;;;;;;;0.68;0.55;;;;;;;25.63;48.97;99419.47;5078774;28;20108;-68
2022/06/06 05:51:37;;;;;;;1.00;0.60;;;;;;;25.63;48.69;99425.88;5059554;28;20497;-68
2022/06/06 05:54:19;;;;;;;0.80;0.50;;;;;;;25.63;48.60;99423.06;5066290;28;20141;-68
2022/06/06 05:57:22;;;;;;;1.00;0.52;;;;;;;25.63;48.61;99437.09;5056216;28;20052;-69
2022/06/06 06:00:09;;;;;;;0.52;0.50;;;;;;;25.65;48.83;99440.28;5008834;28;20510;-69
2022/06/06 06:02:46;;;;;;;0.68;0.57;;;;;;;25.70;48.92;99427.84;5004410;28;20046;-69
2022/06/06 06:05:26;;;;;;;0.70;0.60;;;;;;;25.76;48.41;99429.84;5003474;28;20478;-68
2022/06/06 06:08:25;;;;;;;0.70;0.40;;;;;;;25.83;48.30;99433.81;4990206;28;20446;-69
2022/06/06 06:10:50;;;;;;;0.90;0.60;;;;;;;25.90;48.48;99433.78;4999954;28;20053;-69
2022/06/06 06:13:45;;;;;;;0.50;0.50;;;;;;;25.89;48.35;99433.00;5007399;28;20049;-69
2022/06/06 06:16:13;;;;;;;0.80;0.55;;;;;;;25.90;48.48;99439.38;5002713;28;20046;-69
2022/06/06 06:18:45;;;;;;;0.80;0.50;;;;;;;25.91;48.13;99441.78;4990316;28;20550;-69
2022/06/06 06:21:14;;;;;;;;;;;;;;;25.91;48.36;99446.59;5005191;28;20460;-69
2022/06/06 06:23:46;;;;;;;0.90;0.65;;;;;;;25.87;48.33;99443.81;4997768;28;19963;-68
2022/06/06 06:26:12;;;;;;;;;;;;;;;25.90;48.26;99442.97;4992849;28;20072;-68
2022/06/06 06:28:40;;;;;;;0.93;0.57;;;;;;;25.89;48.40;99449.00;5002392;28;20497;-69
2022/06/06 06:31:43;;;;;;;0.52;0.47;;;;;;;25.87;48.69;99440.22;4979493;28;20570;-69
2022/06/06 06:34:30;;;;;;;0.93;0.60;;;;;;;25.90;48.46;99447.78;4998944;28;20064;-69
2022/06/06 06:37:06;;;;;;;0.45;0.40;;;;;;;25.94;48.29;99445.78;5055486;28;20520;-69
2022/06/06 06:39:31;;;;;;;0.73;0.50;;;;;;;25.95;48.54;99450.97;5063803;28;20163;-69
2022/06/06 06:42:08;;;;;;;0.95;0.60;;;;;;;25.92;48.47;99451.78;5056042;28;20128;-69
2022/06/06 06:44:39;;;;;;;0.90;0.65;;;;;;;25.96;48.58;99451.75;5052155;28;20045;-69
2022/06/06 06:47:17;;;;;;;0.77;0.55;;;;;;;25.92;48.37;99450.97;5035813;28;20482;-70
2022/06/06 06:49:47;;;;;;;0.90;0.50;;;;;;;25.95;48.63;99450.19;5056327;28;20097;-70
2022/06/06 06:52:25;;;;;;;0.57;0.52;;;;;;;26.00;48.63;99446.91;5066394;28;20130;-69
2022/06/06 06:55:11;;;;;;;0.93;0.60;;;;;;;25.93;48.65;99446.97;5057473;28;20044;-69
2022/06/06 06:57:46;;;;;;;0.80;0.60;;;;;;;26.01;48.58;99440.13;5064609;28;20048;-69
2022/06/06 07:00:15;;;;;;;0.63;0.60;;;;;;;26.01;48.34;99451.34;5066930;28;20048;-69
2022/06/06 07:09:57;;;;;;;0.63;0.50;;;;;;;26.00;48.66;99453.34;5009070;28;20116;-68
2022/06/06 07:13:00;;;;;;;0.57;0.55;;;;;;;25.96;48.53;99457.38;4998665;28;20116;-69
2022/06/06 07:15:44;;;;;;;0.80;0.60;;;;;;;25.93;48.45;99452.56;4976555;28;20073;-69
2022/06/06 07:18:15;;;;;;;0.73;0.60;;;;;;;25.97;48.50;99456.16;5005146;28;20053;-68
2022/06/06 07:20:44;;;;;;;0.70;0.50;;;;;;;26.01;48.70;99457.75;5006980;28;20038;-67
2022/06/06 07:23:13;;;;;;;0.80;0.60;;;;;;;26.02;48.66;99452.94;5014967;28;20055;-68
2022/06/06 07:25:42;;;;;;;0.85;0.60;;;;;;;26.03;48.69;99451.72;5064029;28;20044;-68
2022/06/06 07:28:10;;;;;;;0.73;0.55;;;;;;;26.05;48.68;99441.69;5061423;28;20045;-69
2022/06/06 07:31:04;;;;;;;0.77;0.60;;;;;;;26.01;48.71;99440.13;5056939;28;20086;-69
2022/06/06 07:33:54;;;;;;;0.63;0.50;;;;;;;26.04;48.26;99430.88;5070751;28;20343;-68
2022/06/06 07:36:40;;;;;;;0.88;0.60;;;;;;;26.03;48.36;99429.31;5069817;28;20928;-69
2022/06/06 07:39:15;;;;;;;1.35;0.90;;;;;;;25.99;48.83;99429.31;5059381;28;20076;-69
2022/06/06 07:41:44;;;;;;;0.85;0.50;;;;;;;26.05;48.41;99429.69;5057643;28;20512;-69
2022/06/06 07:44:31;;;;;;;0.70;0.50;;;;;;;26.05;48.51;99426.88;5056984;28;20052;-69
2022/06/06 07:47:14;;;;;;;0.93;0.70;;;;;;;26.09;48.03;99418.47;5053975;28;20559;-69
2022/06/06 07:50:03;;;;;;;0.50;0.50;;;;;;;26.10;48.24;99426.44;5057771;28;20041;-70
2022/06/06 07:52:40;;;;;;;0.57;0.50;;;;;;;26.07;48.28;99418.84;5050031;28;20076;-69
2022/06/06 07:55:31;;;;;;;0.90;0.70;;;;;;;26.12;48.28;99417.63;5062790;28;20128;-69
2022/06/06 07:58:09;;;;;;;0.80;0.65;;;;;;;26.16;48.31;99416.41;5051413;28;20045;-69
2022/06/06 08:00:35;;;;;;;0.68;0.60;;;;;;;26.19;48.25;99415.56;5053527;28;20432;-68
2022/06/06 08:03:35;;;;;;;0.80;0.50;;;;;;;26.18;48.22;99411.16;5060972;28;20447;-69
2022/06/06 08:06:10;;;;;;;1.15;0.77;;;;;;;26.17;48.11;99411.59;5048132;28;20036;-68
2022/06/06 08:08:51;;;;;;;1.00;0.70;;;;;;;26.18;47.98;99410.38;5064017;28;20071;-68
2022/06/06 08:11:31;;;;;;;0.82;0.52;;;;;;;26.17;48.34;99397.56;5059116;28;20040;-69
2022/06/06 08:14:02;;;;;;;0.98;0.70;;;;;;;26.14;48.48;99401.97;5054344;28;20424;-69
2022/06/06 08:16:38;;;;;;;0.73;0.60;;;;;;;26.18;48.15;99396.34;5057911;28;20167;-69
2022/06/06 08:19:22;;;;;;;0.65;0.60;;;;;;;26.13;48.62;99396.78;5050842;28;20079;-68
2022/06/06 08:21:49;;;;;;;0.98;0.80;;;;;;;26.16;48.49;99393.19;5058927;28;20171;-68
2022/06/06 08:24:30;;;;;;;0.95;0.70;;;;;;;26.17;48.02;99387.16;5057802;28;20076;-68
2022/06/06 08:26:59;;;;;;;1.00;0.63;;;;;;;26.23;48.25;99384.72;5048555;28;20037;-68
2022/06/06 08:29:26;;;;;;;1.10;0.70;;;;;;;26.25;48.20;99388.69;5049346;28;20033;-68
2022/06/06 08:31:52;;;;;;;0.70;0.55;;;;;;;26.26;47.73;99372.66;5055742;28;20508;-68
2022/06/06 08:34:17;;;;;;;1.02;0.73;;;;;;;26.24;47.77;99375.88;5060705;28;20617;-68
2022/06/06 08:37:10;;;;;;;0.77;0.60;;;;;;;26.26;48.16;99373.44;5058013;28;20045;-68
2022/06/06 08:39:45;;;;;;;0.93;0.60;;;;;;;26.28;47.95;99375.84;5050889;28;20056;-68
2022/06/06 08:42:11;;;;;;;0.50;0.40;;;;;;;26.29;47.61;99375.44;5050356;28;20515;-69
2022/06/06 08:44:55;;;;;;;1.73;0.80;;;;;;;26.32;47.79;99376.63;5056596;28;20170;-68
2022/06/06 08:47:49;;;;;;;0.88;0.63;;;;;;;26.28;47.59;99362.63;5056864;28;20513;-69
2022/06/06 08:53:33;;;;;;;0.80;0.63;;;;;;;26.30;47.35;99368.63;5050086;28;20600;-69
2022/06/06 08:56:33;;;;;;;0.85;0.60;;;;;;;26.31;47.73;99364.59;5043594;28;20143;-69
2022/06/06 08:59:33;;;;;;;0.63;0.60;;;;;;;26.28;47.63;99362.63;5057539;28;20080;-69
2022/06/06 09:02:17;;;;;;;0.50;0.50;;;;;;;26.28;47.87;99356.22;5049982;28;20135;-69
2022/06/06 09:05:01;;;;;;;0.80;0.68;;;;;;;26.30;47.78;99351.81;5059886;28;20052;-69
2022/06/06 09:07:45;;;;;;;1.00;0.65;;;;;;;26.34;47.34;99351.75;5050289;28;20040;-69
2022/06/06 09:10:25;;;;;;;0.70;0.60;;;;;;;26.37;47.71;99353.75;5061518;28;20052;-69
2022/06/06 09:13:12;;;;;;;0.70;0.60;;;;;;;26.35;47.48;99351.34;5069176;28;20052;-69
2022/06/06 09:15:47;;;;;;;1.00;0.70;;;;;;;26.32;47.73;99346.56;5056288;28;20421;-70
2022/06/06 09:18:40;;;;;;;0.80;0.55;;;;;;;26.34;47.73;99340.53;5056986;28;20405;-68
2022/06/06 09:21:41;;;;;;;1.10;0.88;;;;;;;26.34;47.75;99341.34;5050596;28;20064;-69
2022/06/06 09:24:13;;;;;;;0.85;0.60;;;;;;;26.37;47.58;99344.53;5034807;28;20665;-69
2022/06/06 09:27:04;;;;;;;0.50;0.47;;;;;;;26.40;47.28;99335.31;5067001;28;20466;-69
2022/06/06 09:30:07;;;;;;;1.17;0.70;;;;;;;26.46;47.37;99336.47;5053481;28;20056;-69
2022/06/06 09:32:48;;;;;;;0.55;0.55;;;;;;;26.41;47.30;99332.09;5030288;28;21012;-69
2022/06/06 09:35:22;;;;;;;0.90;0.70;;;;;;;26.45;47.00;99326.47;5054561;28;20132;-69
2022/06/06 09:38:29;;;;;;;0.68;0.60;;;;;;;26.45;47.16;99321.66;5059685;28;20064;-69
2022/06/06 09:41:49;;;;;;;0.95;0.70;;;;;;;26.43;46.99;99315.63;5051944;28;20040;-69
2022/06/06 09:44:38;;;;;;;0.80;0.70;;;;;;;26.47;46.98;99321.22;4947441;28;20063;-70
2022/06/06 09:47:52;;;;;;;0.65;0.60;;;;;;;26.47;46.72;99321.22;4936891;28;20411;-69
2022/06/06 09:50:38;;;;;;;1.08;0.70;;;;;;;26.42;46.69;99322.47;4949311;28;20051;-70
2022/06/06 09:53:10;;;;;;;0.95;0.60;;;;;;;26.46;46.77;99311.22;4964709;28;20543;-69
2022/06/06 09:59:01;;;;;;;0.82;0.60;;;;;;;26.44;46.70;99310.84;4949614;28;20468;-70
2022/06/06 10:01:51;;;;;;;1.00;0.63;;;;;;;26.49;46.89;99308.38;4961884;28;20102;-69
2022/06/06 10:04:19;;;;;;;0.80;0.65;;;;;;;26.51;46.59;99299.56;4959345;28;20044;-70
2022/06/06 10:06:56;;;;;;;1.05;0.60;;;;;;;26.47;46.68;99298.78;4967313;28;20055;-69
2022/06/06 10:09:39;;;;;;;0.98;0.70;;;;;;;26.47;46.71;99290.38;4958582;28;20050;-70
2022/06/06 10:12:10;;;;;;;0.70;0.60;;;;;;;26.50;46.48;99293.13;4961092;28;20443;-70
2022/06/06 10:14:57;;;;;;;1.45;0.70;;;;;;;26.51;46.44;99288.34;4963121;28;20058;-70
2022/06/06 10:17:48;;;;;;;0.60;0.60;;;;;;;26.56;45.84;99299.06;4985174;28;20080;-70
2022/06/06 10:20:37;;;;;;;0.60;0.50;;;;;;;26.55;46.09;99289.06;5042665;28;20044;-70
2022/06/06 10:23:26;;;;;;;1.17;0.70;;;;;;;26.55;45.95;99283.47;5062553;28;20105;-70
2022/06/06 10:26:29;;;;;;;1.05;0.70;;;;;;;26.55;45.30;99284.25;5028682;28;20417;-69
2022/06/06 10:30:10;;;;;;;0.75;0.60;;;;;;;26.58;45.06;99282.66;5052692;28;20074;-69
2022/06/06 10:32:49;;;;;;;0.75;0.50;;;;;;;26.60;45.12;99277.41;5049145;28;20528;-69
2022/06/06 10:35:27;;;;;;;1.02;0.60;;;;;;;26.58;44.77;99271.44;5057248;28;20048;-69
2022/06/06 10:38:11;;;;;;;0.50;0.50;;;;;;;26.57;45.09;99270.59;5055484;28;20126;-69
2022/06/06 10:41:27;;;;;;;0.50;0.50;;;;;;;26.53;45.30;99267.06;5060562;28;20139;-68
2022/06/06 10:44:20;;;;;;;0.70;0.65;;;;;;;26.58;44.81;99266.59;5002916;28;20132;-69
2022/06/06 10:46:46;;;;;;;0.45;0.45;;;;;;;26.60;44.64;99269.00;5070687;28;20105;-69
2022/06/06 10:49:18;;;;;;;0.65;0.57;;;;;;;26.60;44.39;99257.78;5069121;28;20069;-69
2022/06/06 10:52:01;;;;;;;0.40;0.40;;;;;;;26.60;44.23;99257.78;5060962;28;20049;-69
2022/06/06 10:54:41;;;;;;;0.93;0.60;;;;;;;26.59;44.27;99259.00;5051926;28;20396;-68
2022/06/06 10:57:36;;;;;;;0.63;0.50;;;;;;;26.53;44.27;99257.84;5054531;28;20048;-69
2022/06/06 11:00:35;;;;;;;0.40;0.40;;;;;;;26.57;44.04;99264.19;5054494;28;20166;-69
2022/06/06 11:03:27;;;;;;;1.05;0.50;;;;;;;26.59;44.13;99259.78;5060432;28;20464;-69
2022/06/06 11:05:52;;;;;;;0.60;0.50;;;;;;;26.60;44.07;99254.97;5054511;28;20040;-69
2022/06/06 11:08:39;;;;;;;0.50;0.47;;;;;;;26.64;43.75;99255.69;5058915;28;20135;-69
2022/06/06 11:11:33;;;;;;;0.90;0.70;;;;;;;26.63;43.77;99251.31;5054060;28;20044;-69
2022/06/06 11:14:03;;;;;;;0.52;0.47;;;;;;;26.62;43.77;99244.13;5047134;28;20045;-69
2022/06/06 11:17:14;;;;;;;0.70;0.43;;;;;;;26.62;43.90;99238.50;5051910;28;20147;-69
2022/06/06 11:20:14;;;;;;;1.27;0.70;;;;;;;26.62;43.66;99238.50;4962035;28;20047;-69
2022/06/06 11:22:53;;;;;;;0.80;0.57;;;;;;;26.63;43.85;99228.88;4944329;28;20048;-69
2022/06/06 11:25:21;;;;;;;0.75;0.60;;;;;;;26.67;43.71;99235.25;4951278;28;20145;-69
2022/06/06 11:28:08;;;;;;;0.93;0.70;;;;;;;26.64;43.71;99238.06;4960731;28;20135;-69
2022/06/06 11:30:53;;;;;;;0.52;0.50;;;;;;;26.65;43.86;99237.69;4957781;28;20050;-68
2022/06/06 11:33:40;;;;;;;1.38;0.68;;;;;;;26.64;44.00;99235.28;4963455;28;20043;-69
2022/06/06 11:36:27;;;;;;;0.68;0.50;;;;;;;26.65;44.13;99231.25;4969246;28;20078;-68
2022/06/06 11:39:07;;;;;;;0.82;0.70;;;;;;;26.68;44.06;99220.00;4965926;28;20051;-69
2022/06/06 11:42:01;;;;;;;0.80;0.60;;;;;;;26.68;43.73;99222.00;4967885;28;20055;-69
2022/06/06 11:44:35;;;;;;;0.82;0.63;;;;;;;26.71;44.09;99209.94;4955469;28;20059;-69
2022/06/06 11:47:25;;;;;;;0.80;0.60;;;;;;;26.69;43.73;99198.34;4955782;28;20055;-68
2022/06/06 11:50:05;;;;;;;0.80;0.65;;;;;;;26.69;43.88;99195.53;4969404;28;20081;-68
2022/06/06 11:52:40;;;;;;;0.75;0.63;;;;;;;26.68;44.09;99189.13;4964317;28;20058;-69
2022/06/06 11:55:24;;;;;;;1.40;0.80;;;;;;;26.65;44.12;99183.56;5063805;28;20037;-68
2022/06/06 11:58:07;;;;;;;0.95;0.57;;;;;;;26.71;43.71;99174.25;5045873;28;20501;-69
2022/06/06 12:00:51;;;;;;;0.93;0.70;;;;;;;26.74;43.93;99179.03;5059750;28;20135;-69
2022/06/06 12:03:19;;;;;;;0.82;0.63;;;;;;;26.73;43.50;99166.22;5055246;28;21025;-69
2022/06/06 12:06:12;;;;;;;0.70;0.52;;;;;;;26.72;43.66;99167.44;5055079;28;20036;-69
2022/06/06 12:09:15;;;;;;;0.93;0.70;;;;;;;26.74;43.34;99155.78;5035312;28;20052;-69
2022/06/06 12:11:59;;;;;;;0.70;0.60;;;;;;;26.75;43.48;99146.16;5052708;28;20053;-68
2022/06/06 12:14:33;;;;;;;0.98;0.60;;;;;;;26.73;43.41;99137.38;5055465;28;20134;-69
2022/06/06 12:17:10;;;;;;;1.00;0.60;;;;;;;26.71;43.55;99140.56;5063685;28;20070;-70
2022/06/06 12:19:58;;;;;;;0.50;0.50;;;;;;;26.71;43.39;99136.97;5056753;28;20405;-69
2022/06/06 12:22:51;;;;;;;0.82;0.50;;;;;;;26.72;43.25;99130.97;5049645;28;20135;-69
2022/06/06 12:25:44;;;;;;;0.75;0.70;;;;;;;26.75;43.29;99132.13;5051762;28;20398;-69
2022/06/06 12:29:02;;;;;;;0.90;0.60;;;;;;;26.75;43.04;99127.31;5060462;28;20429;-68
2022/06/06 12:31:28;;;;;;;0.88;0.55;;;;;;;26.78;42.88;99122.84;5029159;28;20084;-69
2022/06/06 12:33:58;;;;;;;0.65;0.60;;;;;;;26.78;42.86;99109.63;5054500;28;20114;-68
2022/06/06 12:36:36;;;;;;;0.50;0.50;;;;;;;26.73;43.17;99110.09;5066703;28;20044;-69
2022/06/06 12:39:16;;;;;;;0.90;0.60;;;;;;;26.75;43.29;99115.28;5055056;28;20051;-69
2022/06/06 12:42:09;;;;;;;0.80;0.60;;;;;;;26.69;43.29;99100.94;5055251;28;20496;-70
2022/06/06 12:44:44;;;;;;;;;;;;;;;26.76;42.95;99098.03;5064868;28;20554;-70
2022/06/06 12:47:34;;;;;;;0.80;0.57;;;;;;;26.74;43.26;99110.91;5057978;28;19916;-70
2022/06/06 12:50:29;;;;;;;0.70;0.50;;;;;;;26.75;43.17;99102.06;5052438;28;20072;-69